createdAt,value
2023-02-02T00:00:19.866Z,5.1
2023-02-02T00:05:19.851Z,5.1
2023-02-02T00:10:19.847Z,5.2
2023-02-02T00:15:19.820Z,5.2
2023-02-02T00:20:19.804Z,5.2
2023-02-02T00:25:19.786Z,5.2
2023-02-02T00:30:19.869Z,5.2
2023-02-02T00:35:19.731Z,5.2
2023-02-02T00:40:19.715Z,5.2
2023-02-02T00:45:19.901Z,5.2
2023-02-02T00:50:19.679Z,5.2
2023-02-02T00:55:19.667Z,5.2
2023-02-02T01:00:19.674Z,5.2
2023-02-02T01:05:19.625Z,5.2
2023-02-02T01:10:19.616Z,5.2
2023-02-02T01:15:19.582Z,5.1
2023-02-02T01:20:19.619Z,5.1
2023-02-02T01:25:19.550Z,5.1
2023-02-02T01:30:19.546Z,5.1
2023-02-02T01:35:19.526Z,5.1
2023-02-02T01:40:19.506Z,5.1
2023-02-02T01:45:19.512Z,5.1
2023-02-02T01:50:19.464Z,5.1
2023-02-02T01:55:19.436Z,5.1
2023-02-02T02:00:19.417Z,5.1
2023-02-02T02:05:19.500Z,5.1
2023-02-02T02:10:19.386Z,5.1
2023-02-02T02:15:19.357Z,5.1
2023-02-02T02:20:19.370Z,5.1
2023-02-02T02:25:19.350Z,5.1
2023-02-02T02:30:19.309Z,5.1
2023-02-02T02:35:19.349Z,5.1
2023-02-02T02:40:19.287Z,5.1
2023-02-02T02:45:19.249Z,5.1
2023-02-02T02:50:19.239Z,5
2023-02-02T02:55:19.236Z,5
2023-02-02T03:00:19.207Z,5
2023-02-02T03:05:19.202Z,5
2023-02-02T03:10:19.167Z,5
2023-02-02T03:15:19.163Z,5
2023-02-02T03:20:19.127Z,4.9
2023-02-02T03:25:19.119Z,5
2023-02-02T03:30:19.158Z,4.9
2023-02-02T03:35:19.080Z,4.9
2023-02-02T03:40:19.084Z,5
2023-02-02T03:45:19.051Z,5
2023-02-02T03:50:19.034Z,5
2023-02-02T03:55:19.024Z,5
2023-02-02T04:00:18.990Z,4.9
2023-02-02T04:05:18.971Z,4.9
2023-02-02T04:10:18.968Z,4.9
2023-02-02T04:15:18.936Z,4.9
2023-02-02T04:20:18.913Z,4.9
2023-02-02T04:25:18.903Z,4.9
2023-02-02T04:30:18.881Z,4.9
2023-02-02T04:35:18.872Z,4.9
2023-02-02T04:40:18.839Z,4.9
2023-02-02T04:45:18.841Z,4.9
2023-02-02T04:50:18.817Z,4.9
2023-02-02T04:55:18.782Z,4.9
2023-02-02T05:00:18.846Z,4.9
2023-02-02T05:05:18.786Z,4.9
2023-02-02T05:10:18.763Z,4.9
2023-02-02T05:15:18.741Z,4.8
2023-02-02T05:20:18.715Z,4.8
2023-02-02T05:25:18.683Z,4.8
2023-02-02T05:30:18.717Z,4.8
2023-02-02T05:35:18.647Z,4.8
2023-02-02T05:40:18.657Z,4.8
2023-02-02T05:45:18.645Z,4.9
2023-02-02T05:50:18.602Z,4.9
2023-02-02T05:55:18.579Z,4.8
2023-02-02T06:00:18.632Z,4.8
2023-02-02T06:05:18.562Z,4.8
2023-02-02T06:10:18.547Z,4.9
2023-02-02T06:15:18.523Z,4.9
2023-02-02T06:20:18.496Z,4.9
2023-02-02T06:25:18.503Z,4.9
2023-02-02T06:30:18.445Z,4.8
2023-02-02T06:35:18.425Z,4.9
2023-02-02T06:40:18.425Z,4.9
2023-02-02T06:45:18.427Z,4.9
2023-02-02T06:50:18.403Z,4.9
2023-02-02T06:55:18.407Z,4.9
2023-02-02T07:00:18.454Z,4.9
2023-02-02T07:05:18.321Z,4.9
2023-02-02T07:10:18.373Z,4.9
2023-02-02T07:15:18.300Z,4.9
2023-02-02T07:20:18.328Z,4.9
2023-02-02T07:25:18.251Z,4.9
2023-02-02T07:30:18.242Z,4.9
2023-02-02T07:35:18.213Z,4.9
2023-02-02T07:40:18.210Z,5
2023-02-02T07:45:18.180Z,5
2023-02-02T07:50:18.286Z,5.1
2023-02-02T07:55:18.166Z,5.1
2023-02-02T08:00:18.121Z,5.2
2023-02-02T08:05:18.212Z,5.2
2023-02-02T08:10:18.241Z,5.3
2023-02-02T08:15:18.206Z,5.3
2023-02-02T08:20:18.063Z,5.4
2023-02-02T08:25:18.039Z,5.5
2023-02-02T08:30:18.144Z,5.6
2023-02-02T08:35:18.008Z,5.6
2023-02-02T08:40:17.982Z,5.6
2023-02-02T08:45:17.960Z,5.7
2023-02-02T08:50:17.952Z,5.7
2023-02-02T08:55:17.943Z,5.7
2023-02-02T09:00:17.932Z,5.8
2023-02-02T09:05:17.897Z,5.8
2023-02-02T09:10:17.869Z,5.9
2023-02-02T09:15:17.869Z,5.9
2023-02-02T09:20:17.834Z,6
2023-02-02T09:25:17.831Z,6
2023-02-02T09:30:17.788Z,6.1
2023-02-02T09:35:17.958Z,6.1
2023-02-02T09:40:17.775Z,6.1
2023-02-02T09:45:17.797Z,6.1
2023-02-02T09:50:17.722Z,6.1
2023-02-02T09:55:17.714Z,6.1
2023-02-02T10:00:17.749Z,6.1
2023-02-02T10:05:17.661Z,6.2
2023-02-02T10:10:17.699Z,6.2
2023-02-02T10:15:17.652Z,6.2
2023-02-02T10:20:17.603Z,6.3
2023-02-02T10:25:17.602Z,6.3
2023-02-02T10:30:17.589Z,6.4
2023-02-02T10:35:17.566Z,6.4
2023-02-02T10:40:17.696Z,6.4
2023-02-02T10:45:17.522Z,6.5
2023-02-02T10:50:17.494Z,6.6
2023-02-02T10:55:17.497Z,6.6
2023-02-02T11:00:17.459Z,6.6
2023-02-02T11:05:17.451Z,6.7
2023-02-02T11:10:17.422Z,6.7
2023-02-02T11:15:17.417Z,6.7
2023-02-02T11:20:17.405Z,6.8
2023-02-02T11:25:17.499Z,6.8
2023-02-02T11:30:17.438Z,6.9
2023-02-02T11:35:17.337Z,6.9
2023-02-02T11:40:17.313Z,7
2023-02-02T11:45:17.288Z,7
2023-02-02T11:50:17.279Z,7
2023-02-02T11:55:17.266Z,7
2023-02-02T12:00:17.239Z,7
2023-02-02T12:05:17.227Z,7.1
2023-02-02T12:10:17.196Z,7
2023-02-02T12:15:17.207Z,7
2023-02-02T12:20:17.170Z,7
2023-02-02T12:25:17.161Z,7.1
2023-02-02T12:30:17.129Z,7.1
2023-02-02T12:35:17.136Z,7.2
2023-02-02T12:40:17.119Z,7.2
2023-02-02T12:45:17.076Z,7.3
2023-02-02T12:50:17.064Z,7.3
2023-02-02T12:55:17.034Z,7.3
2023-02-02T13:00:17.030Z,7.2
2023-02-02T13:05:17.003Z,7.3
2023-02-02T13:10:16.973Z,7.2
2023-02-02T13:15:16.952Z,7.2
2023-02-02T13:20:16.936Z,7.2
2023-02-02T13:25:17.053Z,7.2
2023-02-02T13:30:16.909Z,7.2
2023-02-02T13:35:16.885Z,7.1
2023-02-02T13:40:16.860Z,7.1
2023-02-02T13:45:16.842Z,7.1
2023-02-02T13:50:16.822Z,7.1
2023-02-02T13:55:16.959Z,7.1
2023-02-02T14:00:16.779Z,7.1
2023-02-02T14:05:16.758Z,7.1
2023-02-02T14:10:16.750Z,7.1
2023-02-02T14:15:16.728Z,7.1
2023-02-02T14:20:16.712Z,7.2
2023-02-02T14:25:16.702Z,7.2
2023-02-02T14:30:16.665Z,7.2
2023-02-02T14:35:16.656Z,7.2
2023-02-02T14:40:16.643Z,7.2
2023-02-02T14:45:16.705Z,7.2
2023-02-02T14:50:16.606Z,7.2
2023-02-02T14:55:16.592Z,7.2
2023-02-02T15:00:16.580Z,7.3
2023-02-02T15:05:16.548Z,7.3
2023-02-02T15:10:16.533Z,7.3
2023-02-02T15:15:16.500Z,7.3
2023-02-02T15:20:16.491Z,7.3
2023-02-02T15:25:16.465Z,7.3
2023-02-02T15:30:16.464Z,7.2
2023-02-02T15:35:16.430Z,7.2
2023-02-02T15:40:16.418Z,7.2
2023-02-02T15:45:16.398Z,7.2
2023-02-02T15:50:16.373Z,7.2
2023-02-02T15:55:16.345Z,7.2
2023-02-02T16:00:16.327Z,7.1
2023-02-02T16:05:16.316Z,7.1
2023-02-02T16:10:16.299Z,7.1
2023-02-02T16:15:16.277Z,7.1
2023-02-02T16:20:16.254Z,7.1
2023-02-02T16:25:16.234Z,7.1
2023-02-02T16:30:16.224Z,7.1
2023-02-02T16:35:16.191Z,7
2023-02-02T16:40:16.187Z,7
2023-02-02T16:45:16.160Z,7
2023-02-02T16:50:16.165Z,7
2023-02-02T16:55:16.124Z,7
2023-02-02T17:00:16.129Z,7
2023-02-02T17:05:16.091Z,6.9
2023-02-02T17:10:16.068Z,6.9
2023-02-02T17:15:16.058Z,6.9
2023-02-02T17:20:16.098Z,6.9
2023-02-02T17:25:16.014Z,6.8
2023-02-02T17:30:15.998Z,6.8
2023-02-02T17:35:15.982Z,6.7
2023-02-02T17:40:15.960Z,6.8
2023-02-02T17:45:15.948Z,6.8
2023-02-02T17:50:15.948Z,6.8
2023-02-02T17:55:15.897Z,6.8
2023-02-02T18:00:15.909Z,6.8
2023-02-02T18:05:15.883Z,6.8
2023-02-02T18:10:15.845Z,6.7
2023-02-02T18:15:15.825Z,6.7
2023-02-02T18:20:15.827Z,6.7
2023-02-02T18:25:15.798Z,6.7
2023-02-02T18:30:15.769Z,6.7
2023-02-02T18:35:15.763Z,6.7
2023-02-02T18:40:15.742Z,6.6
2023-02-02T18:45:15.726Z,6.7
2023-02-02T18:50:15.756Z,6.7
2023-02-02T18:55:15.681Z,6.7
2023-02-02T19:00:15.673Z,6.7
2023-02-02T19:05:15.639Z,6.7
2023-02-02T19:10:15.632Z,6.7
2023-02-02T19:15:15.643Z,6.7
2023-02-02T19:20:15.586Z,6.7
2023-02-02T19:25:15.573Z,6.7
2023-02-02T19:30:15.556Z,6.7
2023-02-02T19:35:15.532Z,6.6
2023-02-02T19:40:15.511Z,6.6
2023-02-02T19:45:15.505Z,6.5
2023-02-02T19:50:15.468Z,6.4
2023-02-02T19:55:15.463Z,6.4
2023-02-02T20:00:15.445Z,6.3
2023-02-02T20:05:15.416Z,6.3
2023-02-02T20:10:15.408Z,6.3
2023-02-02T20:15:15.381Z,6.2
2023-02-02T20:20:15.355Z,6.2
2023-02-02T20:25:15.421Z,6.2
2023-02-02T20:30:15.335Z,6.2
2023-02-02T20:35:15.322Z,6.2
2023-02-02T20:40:15.291Z,6.2
2023-02-02T20:45:15.284Z,6.2
2023-02-02T20:50:15.245Z,6.2
2023-02-02T20:55:15.247Z,6.2
2023-02-02T21:00:15.240Z,6.2
2023-02-02T21:05:15.211Z,6.2
2023-02-02T21:10:15.187Z,6.2
2023-02-02T21:15:15.157Z,6.2
2023-02-02T21:20:15.166Z,6.2
2023-02-02T21:25:15.124Z,6.2
2023-02-02T21:30:15.115Z,6.2
2023-02-02T21:35:15.232Z,6.2
2023-02-02T21:40:15.214Z,6.2
2023-02-02T21:45:15.156Z,6.2
2023-02-02T21:50:15.033Z,6.2
2023-02-02T21:55:15.160Z,6.2
2023-02-02T22:00:14.992Z,6.2
2023-02-02T22:05:15.179Z,6.2
2023-02-02T22:10:15.111Z,6.1
2023-02-02T22:15:15.137Z,6.1
2023-02-02T22:20:15.055Z,6.1
2023-02-02T22:25:14.898Z,6.1
2023-02-02T22:30:14.913Z,6.1
2023-02-02T22:35:14.875Z,6.1
2023-02-02T22:40:14.983Z,6.1
2023-02-02T22:45:14.863Z,6.1
2023-02-02T22:50:14.831Z,6
2023-02-02T22:55:14.791Z,6.1
2023-02-02T23:00:14.780Z,6
2023-02-02T23:05:14.812Z,6
2023-02-02T23:10:14.977Z,6
2023-02-02T23:15:14.739Z,6
2023-02-02T23:20:14.797Z,6
2023-02-02T23:25:14.674Z,6
2023-02-02T23:30:14.658Z,5.9
2023-02-02T23:35:14.745Z,5.9
2023-02-02T23:40:14.653Z,5.9
2023-02-02T23:45:14.615Z,5.9
2023-02-02T23:50:14.741Z,5.9
2023-02-02T23:55:14.590Z,5.9
